sensor_id;sensor_type;location;lat;lon;timestamp;pressure;altitude;pressure_sealevel;temperature;humidity
35952;BME280;22035;51.406;16.194;2023-01-26T00:01:15;100758.34;;;25.65;19.23
35952;BME280;22035;51.406;16.194;2023-01-26T00:03:41;100757.70;;;25.64;19.23
35952;BME280;22035;51.406;16.194;2023-01-26T00:06:09;100754.75;;;25.67;19.19
35952;BME280;22035;51.406;16.194;2023-01-26T00:08:36;100749.35;;;25.72;19.15
35952;BME280;22035;51.406;16.194;2023-01-26T00:11:03;100749.89;;;25.68;19.19
35952;BME280;22035;51.406;16.194;2023-01-26T00:13:28;100747.01;;;25.68;19.18
35952;BME280;22035;51.406;16.194;2023-01-26T00:15:54;100746.41;;;25.66;19.21
35952;BME280;22035;51.406;16.194;2023-01-26T00:18:20;100746.56;;;25.67;19.19
35952;BME280;22035;51.406;16.194;2023-01-26T00:20:45;100743.06;;;25.68;19.19
35952;BME280;22035;51.406;16.194;2023-01-26T00:23:11;100738.98;;;25.69;19.18
35952;BME280;22035;51.406;16.194;2023-01-26T00:25:37;100738.52;;;25.68;19.18
35952;BME280;22035;51.406;16.194;2023-01-26T00:28:03;100738.82;;;25.69;19.18
35952;BME280;22035;51.406;16.194;2023-01-26T00:30:29;100736.64;;;25.67;19.06
35952;BME280;22035;51.406;16.194;2023-01-26T00:32:55;100733.86;;;25.66;19.21
35952;BME280;22035;51.406;16.194;2023-01-26T00:35:21;100731.55;;;25.69;19.17
35952;BME280;22035;51.406;16.194;2023-01-26T00:37:46;100728.82;;;25.66;19.21
35952;BME280;22035;51.406;16.194;2023-01-26T00:40:12;100728.49;;;25.61;19.25
35952;BME280;22035;51.406;16.194;2023-01-26T00:42:38;100730.34;;;25.65;19.22
35952;BME280;22035;51.406;16.194;2023-01-26T00:45:05;100729.33;;;25.67;19.19
35952;BME280;22035;51.406;16.194;2023-01-26T00:47:30;100729.71;;;25.69;19.19
35952;BME280;22035;51.406;16.194;2023-01-26T00:49:56;100725.25;;;25.65;19.22
35952;BME280;22035;51.406;16.194;2023-01-26T00:52:22;100721.96;;;25.64;19.22
35952;BME280;22035;51.406;16.194;2023-01-26T00:54:48;100722.57;;;25.65;19.21
35952;BME280;22035;51.406;16.194;2023-01-26T00:57:13;100723.33;;;25.68;19.17
35952;BME280;22035;51.406;16.194;2023-01-26T00:59:39;100721.94;;;25.66;19.20
35952;BME280;22035;51.406;16.194;2023-01-26T01:02:05;100723.69;;;25.69;19.17
35952;BME280;22035;51.406;16.194;2023-01-26T01:04:31;100720.95;;;25.60;19.26
35952;BME280;22035;51.406;16.194;2023-01-26T01:06:57;100718.87;;;25.67;19.20
35952;BME280;22035;51.406;16.194;2023-01-26T01:09:23;100716.99;;;25.66;19.21
35952;BME280;22035;51.406;16.194;2023-01-26T01:11:49;100711.69;;;25.62;19.23
35952;BME280;22035;51.406;16.194;2023-01-26T01:14:15;100713.40;;;25.66;19.20
35952;BME280;22035;51.406;16.194;2023-01-26T01:16:42;100710.79;;;25.66;19.21
35952;BME280;22035;51.406;16.194;2023-01-26T01:19:12;100711.78;;;25.66;19.21
35952;BME280;22035;51.406;16.194;2023-01-26T01:21:38;100712.23;;;25.66;19.22
35952;BME280;22035;51.406;16.194;2023-01-26T01:24:04;100710.26;;;25.65;19.22
35952;BME280;22035;51.406;16.194;2023-01-26T01:26:31;100709.25;;;25.64;19.23
35952;BME280;22035;51.406;16.194;2023-01-26T01:28:57;100708.30;;;25.68;19.19
35952;BME280;22035;51.406;16.194;2023-01-26T01:31:23;100711.06;;;25.65;19.19
35952;BME280;22035;51.406;16.194;2023-01-26T01:33:50;100708.34;;;25.63;19.22
35952;BME280;22035;51.406;16.194;2023-01-26T01:36:16;100705.15;;;25.65;19.22
35952;BME280;22035;51.406;16.194;2023-01-26T01:38:43;100703.87;;;25.70;19.16
35952;BME280;22035;51.406;16.194;2023-01-26T01:41:10;100700.41;;;25.64;19.22
35952;BME280;22035;51.406;16.194;2023-01-26T01:43:37;100697.45;;;25.66;19.20
35952;BME280;22035;51.406;16.194;2023-01-26T01:46:06;100694.71;;;25.67;19.18
35952;BME280;22035;51.406;16.194;2023-01-26T01:48:46;100693.42;;;25.63;19.22
35952;BME280;22035;51.406;16.194;2023-01-26T01:51:17;100691.56;;;25.64;19.22
35952;BME280;22035;51.406;16.194;2023-01-26T01:53:47;100688.06;;;25.64;19.21
35952;BME280;22035;51.406;16.194;2023-01-26T01:56:16;100683.99;;;25.66;19.19
35952;BME280;22035;51.406;16.194;2023-01-26T01:58:44;100684.37;;;25.66;19.20
35952;BME280;22035;51.406;16.194;2023-01-26T02:01:10;100681.94;;;25.66;19.19
35952;BME280;22035;51.406;16.194;2023-01-26T02:03:37;100677.53;;;25.60;19.24
35952;BME280;22035;51.406;16.194;2023-01-26T02:06:07;100678.34;;;25.66;19.19
35952;BME280;22035;51.406;16.194;2023-01-26T02:08:38;100675.42;;;25.65;19.19
35952;BME280;22035;51.406;16.194;2023-01-26T02:11:08;100672.13;;;25.67;19.18
35952;BME280;22035;51.406;16.194;2023-01-26T02:13:35;100669.83;;;25.67;19.18
35952;BME280;22035;51.406;16.194;2023-01-26T02:16:01;100665.23;;;25.67;19.18
35952;BME280;22035;51.406;16.194;2023-01-26T02:18:27;100661.84;;;25.67;19.17
35952;BME280;22035;51.406;16.194;2023-01-26T02:20:57;100660.03;;;25.69;19.15
35952;BME280;22035;51.406;16.194;2023-01-26T02:23:31;100656.25;;;25.67;19.18
35952;BME280;22035;51.406;16.194;2023-01-26T02:26:04;100648.81;;;25.65;19.19
35952;BME280;22035;51.406;16.194;2023-01-26T02:28:29;100646.87;;;25.66;19.18
35952;BME280;22035;51.406;16.194;2023-01-26T02:30:55;100642.74;;;25.62;19.22
35952;BME280;22035;51.406;16.194;2023-01-26T02:33:23;100642.15;;;25.67;19.18
35952;BME280;22035;51.406;16.194;2023-01-26T02:35:50;100639.72;;;25.66;19.18
35952;BME280;22035;51.406;16.194;2023-01-26T02:38:16;100635.17;;;25.65;19.18
35952;BME280;22035;51.406;16.194;2023-01-26T02:40:48;100636.34;;;25.61;19.20
35952;BME280;22035;51.406;16.194;2023-01-26T02:43:17;100633.17;;;25.61;19.21
35952;BME280;22035;51.406;16.194;2023-01-26T02:45:43;100626.91;;;25.65;19.18
35952;BME280;22035;51.406;16.194;2023-01-26T02:48:09;100623.62;;;25.62;19.20
35952;BME280;22035;51.406;16.194;2023-01-26T02:50:35;100623.50;;;25.64;19.20
35952;BME280;22035;51.406;16.194;2023-01-26T02:53:02;100618.97;;;25.67;19.16
35952;BME280;22035;51.406;16.194;2023-01-26T02:55:28;100614.66;;;25.64;19.19
35952;BME280;22035;51.406;16.194;2023-01-26T02:57:56;100613.41;;;25.69;19.14
35952;BME280;22035;51.406;16.194;2023-01-26T03:00:23;100611.25;;;25.67;19.16
35952;BME280;22035;51.406;16.194;2023-01-26T03:02:50;100603.83;;;25.61;19.21
35952;BME280;22035;51.406;16.194;2023-01-26T03:05:16;100598.19;;;25.67;19.16
35952;BME280;22035;51.406;16.194;2023-01-26T03:07:42;100594.66;;;25.64;19.18
35952;BME280;22035;51.406;16.194;2023-01-26T03:10:09;100588.14;;;25.62;19.20
35952;BME280;22035;51.406;16.194;2023-01-26T03:12:35;100585.20;;;25.65;19.16
35952;BME280;22035;51.406;16.194;2023-01-26T03:15:01;100582.49;;;25.65;19.17
35952;BME280;22035;51.406;16.194;2023-01-26T03:17:27;100584.81;;;25.66;19.16
35952;BME280;22035;51.406;16.194;2023-01-26T03:19:53;100581.07;;;25.68;19.13
35952;BME280;22035;51.406;16.194;2023-01-26T03:22:18;100581.79;;;25.63;19.18
35952;BME280;22035;51.406;16.194;2023-01-26T03:24:44;100577.75;;;25.66;19.15
35952;BME280;22035;51.406;16.194;2023-01-26T03:27:10;100571.95;;;25.69;19.12
35952;BME280;22035;51.406;16.194;2023-01-26T03:29:36;100567.34;;;25.65;19.17
35952;BME280;22035;51.406;16.194;2023-01-26T03:32:02;100563.48;;;25.65;19.15
35952;BME280;22035;51.406;16.194;2023-01-26T03:34:28;100561.36;;;25.67;19.14
35952;BME280;22035;51.406;16.194;2023-01-26T03:36:54;100558.25;;;25.68;19.13
35952;BME280;22035;51.406;16.194;2023-01-26T03:39:19;100554.18;;;25.62;19.19
35952;BME280;22035;51.406;16.194;2023-01-26T03:41:45;100552.67;;;25.69;19.11
35952;BME280;22035;51.406;16.194;2023-01-26T03:44:11;100551.93;;;25.64;19.15
35952;BME280;22035;51.406;16.194;2023-01-26T03:46:37;100548.48;;;25.67;19.14
35952;BME280;22035;51.406;16.194;2023-01-26T03:49:02;100543.01;;;25.61;19.17
35952;BME280;22035;51.406;16.194;2023-01-26T03:51:28;100541.91;;;25.60;19.20
35952;BME280;22035;51.406;16.194;2023-01-26T03:53:54;100543.31;;;25.67;19.13
35952;BME280;22035;51.406;16.194;2023-01-26T03:56:20;100541.97;;;25.62;19.17
35952;BME280;22035;51.406;16.194;2023-01-26T03:58:47;100544.20;;;25.65;19.16
35952;BME280;22035;51.406;16.194;2023-01-26T04:01:13;100546.66;;;25.61;19.18
35952;BME280;22035;51.406;16.194;2023-01-26T04:03:39;100546.03;;;25.62;19.17
35952;BME280;22035;51.406;16.194;2023-01-26T04:06:05;100547.57;;;25.70;19.10
35952;BME280;22035;51.406;16.194;2023-01-26T04:08:31;100548.41;;;25.60;19.20
35952;BME280;22035;51.406;16.194;2023-01-26T04:10:57;100547.81;;;25.64;19.16
35952;BME280;22035;51.406;16.194;2023-01-26T04:13:23;100543.68;;;25.65;19.15
35952;BME280;22035;51.406;16.194;2023-01-26T04:15:49;100540.40;;;25.62;19.16
35952;BME280;22035;51.406;16.194;2023-01-26T04:18:15;100539.10;;;25.64;19.15
35952;BME280;22035;51.406;16.194;2023-01-26T04:20:41;100538.87;;;25.67;19.12
35952;BME280;22035;51.406;16.194;2023-01-26T04:23:06;100541.52;;;25.63;19.16
35952;BME280;22035;51.406;16.194;2023-01-26T04:25:41;100540.51;;;25.67;19.12
35952;BME280;22035;51.406;16.194;2023-01-26T04:28:06;100543.94;;;25.64;19.15
35952;BME280;22035;51.406;16.194;2023-01-26T04:30:32;100543.40;;;25.62;19.16
35952;BME280;22035;51.406;16.194;2023-01-26T04:32:58;100540.96;;;25.60;19.18
35952;BME280;22035;51.406;16.194;2023-01-26T04:35:24;100546.41;;;25.62;19.16
35952;BME280;22035;51.406;16.194;2023-01-26T04:37:49;100546.01;;;25.64;19.15
35952;BME280;22035;51.406;16.194;2023-01-26T04:40:15;100544.21;;;25.62;19.16
35952;BME280;22035;51.406;16.194;2023-01-26T04:42:41;100543.54;;;25.64;19.14
35952;BME280;22035;51.406;16.194;2023-01-26T04:45:08;100542.52;;;25.66;19.12
35952;BME280;22035;51.406;16.194;2023-01-26T04:47:34;100539.52;;;25.66;19.12
35952;BME280;22035;51.406;16.194;2023-01-26T04:50:00;100537.91;;;25.63;19.15
35952;BME280;22035;51.406;16.194;2023-01-26T04:52:26;100539.81;;;25.63;19.15
35952;BME280;22035;51.406;16.194;2023-01-26T04:54:52;100540.15;;;25.63;19.15
35952;BME280;22035;51.406;16.194;2023-01-26T04:57:17;100537.80;;;25.65;19.13
35952;BME280;22035;51.406;16.194;2023-01-26T04:59:43;100538.64;;;25.65;19.12
35952;BME280;22035;51.406;16.194;2023-01-26T05:02:09;100545.07;;;25.65;19.12
35952;BME280;22035;51.406;16.194;2023-01-26T05:04:35;100543.81;;;25.63;19.14
35952;BME280;22035;51.406;16.194;2023-01-26T05:07:01;100541.25;;;25.60;19.15
35952;BME280;22035;51.406;16.194;2023-01-26T05:09:26;100537.71;;;25.59;19.17
35952;BME280;22035;51.406;16.194;2023-01-26T05:11:52;100532.66;;;25.63;19.14
35952;BME280;22035;51.406;16.194;2023-01-26T05:14:18;100527.92;;;25.61;19.15
35952;BME280;22035;51.406;16.194;2023-01-26T05:16:43;100531.07;;;25.62;19.14
35952;BME280;22035;51.406;16.194;2023-01-26T05:19:09;100531.03;;;25.61;19.14
35952;BME280;22035;51.406;16.194;2023-01-26T05:21:35;100530.93;;;25.67;19.09
35952;BME280;22035;51.406;16.194;2023-01-26T05:24:01;100523.30;;;25.66;19.07
35952;BME280;22035;51.406;16.194;2023-01-26T05:26:26;100522.60;;;25.65;19.11
35952;BME280;22035;51.406;16.194;2023-01-26T05:28:52;100521.70;;;25.63;19.12
35952;BME280;22035;51.406;16.194;2023-01-26T05:31:18;100519.65;;;25.63;19.12
35952;BME280;22035;51.406;16.194;2023-01-26T05:33:44;100517.78;;;25.66;19.10
35952;BME280;22035;51.406;16.194;2023-01-26T05:36:09;100517.07;;;25.65;19.10
35952;BME280;22035;51.406;16.194;2023-01-26T05:38:35;100514.79;;;25.65;19.10
35952;BME280;22035;51.406;16.194;2023-01-26T05:41:01;100510.48;;;25.63;19.12
35952;BME280;22035;51.406;16.194;2023-01-26T05:43:26;100505.63;;;25.65;19.11
35952;BME280;22035;51.406;16.194;2023-01-26T05:45:52;100503.13;;;25.68;19.07
35952;BME280;22035;51.406;16.194;2023-01-26T05:48:18;100498.73;;;25.64;19.10
35952;BME280;22035;51.406;16.194;2023-01-26T05:50:44;100494.80;;;25.63;19.11
35952;BME280;22035;51.406;16.194;2023-01-26T05:53:09;100490.02;;;25.65;19.10
35952;BME280;22035;51.406;16.194;2023-01-26T05:55:35;100488.63;;;25.64;19.09
35952;BME280;22035;51.406;16.194;2023-01-26T05:58:01;100488.91;;;25.64;19.11
35952;BME280;22035;51.406;16.194;2023-01-26T06:00:26;100491.33;;;25.62;19.11
35952;BME280;22035;51.406;16.194;2023-01-26T06:02:52;100491.64;;;25.61;19.14
35952;BME280;22035;51.406;16.194;2023-01-26T06:05:18;100493.49;;;25.66;19.08
35952;BME280;22035;51.406;16.194;2023-01-26T06:07:44;100490.66;;;25.66;19.09
35952;BME280;22035;51.406;16.194;2023-01-26T06:10:10;100492.87;;;25.62;19.12
35952;BME280;22035;51.406;16.194;2023-01-26T06:12:36;100496.58;;;25.61;19.13
35952;BME280;22035;51.406;16.194;2023-01-26T06:15:02;100500.18;;;25.61;19.13
35952;BME280;22035;51.406;16.194;2023-01-26T06:17:28;100502.56;;;25.61;19.12
35952;BME280;22035;51.406;16.194;2023-01-26T06:19:54;100502.49;;;25.67;19.07
35952;BME280;22035;51.406;16.194;2023-01-26T06:22:19;100505.61;;;25.67;19.06
35952;BME280;22035;51.406;16.194;2023-01-26T06:24:46;100508.63;;;25.67;19.06
35952;BME280;22035;51.406;16.194;2023-01-26T06:27:13;100506.11;;;25.65;19.10
35952;BME280;22035;51.406;16.194;2023-01-26T06:29:38;100498.37;;;25.62;19.11
35952;BME280;22035;51.406;16.194;2023-01-26T06:32:05;100497.88;;;25.61;19.13
35952;BME280;22035;51.406;16.194;2023-01-26T06:34:30;100497.73;;;25.62;19.12
35952;BME280;22035;51.406;16.194;2023-01-26T06:36:56;100496.96;;;25.63;19.10
35952;BME280;22035;51.406;16.194;2023-01-26T06:39:22;100492.19;;;25.62;19.11
35952;BME280;22035;51.406;16.194;2023-01-26T06:41:47;100489.07;;;25.67;19.07
35952;BME280;22035;51.406;16.194;2023-01-26T06:44:13;100490.90;;;25.65;19.08
35952;BME280;22035;51.406;16.194;2023-01-26T06:46:39;100493.22;;;25.65;19.10
35952;BME280;22035;51.406;16.194;2023-01-26T06:49:05;100494.65;;;25.66;19.09
35952;BME280;22035;51.406;16.194;2023-01-26T06:51:42;100492.03;;;25.65;19.10
35952;BME280;22035;51.406;16.194;2023-01-26T06:54:09;100494.61;;;25.68;19.06
35952;BME280;22035;51.406;16.194;2023-01-26T06:56:35;100497.08;;;25.63;19.10
35952;BME280;22035;51.406;16.194;2023-01-26T06:59:01;100498.57;;;25.61;19.12
35952;BME280;22035;51.406;16.194;2023-01-26T07:01:29;100493.50;;;25.65;19.08
35952;BME280;22035;51.406;16.194;2023-01-26T07:03:56;100489.48;;;25.63;19.10
35952;BME280;22035;51.406;16.194;2023-01-26T07:06:22;100495.44;;;25.60;19.13
35952;BME280;22035;51.406;16.194;2023-01-26T07:08:48;100496.15;;;25.65;19.08
35952;BME280;22035;51.406;16.194;2023-01-26T07:11:14;100497.39;;;25.67;19.07
35952;BME280;22035;51.406;16.194;2023-01-26T07:13:39;100493.02;;;25.61;19.11
35952;BME280;22035;51.406;16.194;2023-01-26T07:16:06;100494.17;;;25.67;19.06
35952;BME280;22035;51.406;16.194;2023-01-26T07:18:33;100499.84;;;25.67;19.06
35952;BME280;22035;51.406;16.194;2023-01-26T07:20:59;100503.86;;;25.66;19.07
35952;BME280;22035;51.406;16.194;2023-01-26T07:23:25;100501.64;;;25.62;19.12
35952;BME280;22035;51.406;16.194;2023-01-26T07:25:51;100500.74;;;25.66;19.09
35952;BME280;22035;51.406;16.194;2023-01-26T07:28:16;100501.77;;;25.63;19.10
35952;BME280;22035;51.406;16.194;2023-01-26T07:30:42;100498.92;;;25.61;19.13
35952;BME280;22035;51.406;16.194;2023-01-26T07:33:08;100494.69;;;25.63;19.06
35952;BME280;22035;51.406;16.194;2023-01-26T07:35:33;100497.16;;;25.65;19.10
35952;BME280;22035;51.406;16.194;2023-01-26T07:37:59;100500.95;;;25.63;19.11
35952;BME280;22035;51.406;16.194;2023-01-26T07:40:25;100503.64;;;25.60;19.14
35952;BME280;22035;51.406;16.194;2023-01-26T07:42:51;100496.64;;;25.63;19.12
35952;BME280;22035;51.406;16.194;2023-01-26T07:45:16;100490.36;;;25.64;19.11
35952;BME280;22035;51.406;16.194;2023-01-26T07:47:42;100488.64;;;25.65;19.11
35952;BME280;22035;51.406;16.194;2023-01-26T07:50:09;100490.05;;;25.60;19.15
35952;BME280;22035;51.406;16.194;2023-01-26T07:52:35;100496.21;;;25.55;19.20
35952;BME280;22035;51.406;16.194;2023-01-26T07:55:01;100494.99;;;25.58;19.18
35952;BME280;22035;51.406;16.194;2023-01-26T07:57:27;100491.65;;;25.66;19.10
35952;BME280;22035;51.406;16.194;2023-01-26T07:59:53;100489.66;;;25.61;19.15
35952;BME280;22035;51.406;16.194;2023-01-26T08:02:19;100494.58;;;25.63;19.14
35952;BME280;22035;51.406;16.194;2023-01-26T08:04:44;100500.21;;;25.59;19.18
35952;BME280;22035;51.406;16.194;2023-01-26T08:07:10;100501.98;;;25.65;19.11
35952;BME280;22035;51.406;16.194;2023-01-26T08:09:36;100503.93;;;25.60;19.18
35952;BME280;22035;51.406;16.194;2023-01-26T08:12:01;100508.73;;;25.61;19.16
35952;BME280;22035;51.406;16.194;2023-01-26T08:14:27;100507.48;;;25.61;19.16
35952;BME280;22035;51.406;16.194;2023-01-26T08:16:53;100506.64;;;25.62;19.15
35952;BME280;22035;51.406;16.194;2023-01-26T08:19:19;100511.42;;;25.61;19.16
35952;BME280;22035;51.406;16.194;2023-01-26T08:21:44;100510.78;;;25.59;19.18
35952;BME280;22035;51.406;16.194;2023-01-26T08:24:10;100510.14;;;25.62;19.15
35952;BME280;22035;51.406;16.194;2023-01-26T08:26:36;100506.13;;;25.62;19.15
35952;BME280;22035;51.406;16.194;2023-01-26T08:29:02;100505.60;;;25.61;19.15
35952;BME280;22035;51.406;16.194;2023-01-26T08:31:28;100507.65;;;25.58;19.19
35952;BME280;22035;51.406;16.194;2023-01-26T08:33:54;100508.69;;;25.62;19.15
35952;BME280;22035;51.406;16.194;2023-01-26T08:36:20;100508.27;;;25.62;19.16
35952;BME280;22035;51.406;16.194;2023-01-26T08:38:46;100510.43;;;25.62;19.16
35952;BME280;22035;51.406;16.194;2023-01-26T08:41:12;100508.04;;;25.65;19.12
35952;BME280;22035;51.406;16.194;2023-01-26T08:43:39;100504.21;;;25.61;19.17
35952;BME280;22035;51.406;16.194;2023-01-26T08:46:06;100504.18;;;25.61;19.16
35952;BME280;22035;51.406;16.194;2023-01-26T08:48:31;100506.35;;;25.60;19.18
35952;BME280;22035;51.406;16.194;2023-01-26T08:50:59;100511.59;;;25.61;19.18
35952;BME280;22035;51.406;16.194;2023-01-26T08:53:28;100513.26;;;25.63;19.16
35952;BME280;22035;51.406;16.194;2023-01-26T08:55:54;100511.51;;;25.65;19.14
35952;BME280;22035;51.406;16.194;2023-01-26T08:58:20;100504.85;;;25.61;19.18
35952;BME280;22035;51.406;16.194;2023-01-26T09:00:45;100499.57;;;25.61;19.12
35952;BME280;22035;51.406;16.194;2023-01-26T09:03:11;100501.46;;;25.64;19.15
35952;BME280;22035;51.406;16.194;2023-01-26T09:05:38;100502.39;;;25.59;19.19
35952;BME280;22035;51.406;16.194;2023-01-26T09:08:05;100496.75;;;25.63;19.16
35952;BME280;22035;51.406;16.194;2023-01-26T09:10:32;100498.46;;;25.62;19.16
35952;BME280;22035;51.406;16.194;2023-01-26T09:12:59;100496.93;;;25.65;19.13
35952;BME280;22035;51.406;16.194;2023-01-26T09:15:25;100497.59;;;25.64;19.15
35952;BME280;22035;51.406;16.194;2023-01-26T09:17:51;100502.73;;;25.59;19.20
35952;BME280;22035;51.406;16.194;2023-01-26T09:20:18;100507.10;;;25.62;19.17
35952;BME280;22035;51.406;16.194;2023-01-26T09:22:44;100504.57;;;25.61;19.17
35952;BME280;22035;51.406;16.194;2023-01-26T09:25:10;100504.10;;;25.63;19.16
35952;BME280;22035;51.406;16.194;2023-01-26T09:27:36;100501.77;;;25.68;19.11
35952;BME280;22035;51.406;16.194;2023-01-26T09:30:04;100501.47;;;25.61;19.18
35952;BME280;22035;51.406;16.194;2023-01-26T09:32:30;100498.54;;;25.58;19.19
35952;BME280;22035;51.406;16.194;2023-01-26T09:34:56;100497.12;;;25.61;19.18
35952;BME280;22035;51.406;16.194;2023-01-26T09:37:22;100502.14;;;25.61;19.18
35952;BME280;22035;51.406;16.194;2023-01-26T09:39:47;100498.63;;;25.59;19.20
35952;BME280;22035;51.406;16.194;2023-01-26T09:42:24;100496.60;;;25.64;19.16
35952;BME280;22035;51.406;16.194;2023-01-26T09:45:01;100490.96;;;25.64;19.16
35952;BME280;22035;51.406;16.194;2023-01-26T09:47:35;100490.68;;;25.63;19.16
35952;BME280;22035;51.406;16.194;2023-01-26T09:50:11;100490.37;;;25.62;19.16
35952;BME280;22035;51.406;16.194;2023-01-26T09:52:46;100490.62;;;25.59;19.20
35952;BME280;22035;51.406;16.194;2023-01-26T09:55:18;100493.40;;;25.58;19.21
35952;BME280;22035;51.406;16.194;2023-01-26T09:57:48;100488.59;;;25.60;19.20
35952;BME280;22035;51.406;16.194;2023-01-26T10:00:20;100487.83;;;25.64;19.15
35952;BME280;22035;51.406;16.194;2023-01-26T10:02:54;100485.07;;;25.63;19.16
35952;BME280;22035;51.406;16.194;2023-01-26T10:05:31;100485.49;;;25.60;19.20
35952;BME280;22035;51.406;16.194;2023-01-26T10:08:01;100486.00;;;25.63;19.17
35952;BME280;22035;51.406;16.194;2023-01-26T10:10:31;100482.12;;;25.64;19.16
35952;BME280;22035;51.406;16.194;2023-01-26T10:12:59;100478.85;;;25.62;19.19
35952;BME280;22035;51.406;16.194;2023-01-26T10:15:29;100475.38;;;25.64;19.16
35952;BME280;22035;51.406;16.194;2023-01-26T10:17:56;100470.15;;;25.62;19.18
35952;BME280;22035;51.406;16.194;2023-01-26T10:20:29;100469.98;;;25.64;19.16
35952;BME280;22035;51.406;16.194;2023-01-26T10:22:59;100467.62;;;25.64;19.16
35952;BME280;22035;51.406;16.194;2023-01-26T10:25:29;100470.13;;;25.67;19.13
35952;BME280;22035;51.406;16.194;2023-01-26T10:27:57;100468.16;;;25.65;19.15
35952;BME280;22035;51.406;16.194;2023-01-26T10:30:23;100467.44;;;25.61;19.21
35952;BME280;22035;51.406;16.194;2023-01-26T10:32:50;100467.11;;;25.64;19.16
35952;BME280;22035;51.406;16.194;2023-01-26T10:35:18;100463.00;;;25.61;19.19
35952;BME280;22035;51.406;16.194;2023-01-26T10:37:44;100459.69;;;25.65;19.17
35952;BME280;22035;51.406;16.194;2023-01-26T10:40:10;100453.83;;;25.66;19.15
35952;BME280;22035;51.406;16.194;2023-01-26T10:42:38;100455.02;;;25.65;19.17
35952;BME280;22035;51.406;16.194;2023-01-26T10:45:05;100457.49;;;25.62;19.20
35952;BME280;22035;51.406;16.194;2023-01-26T10:47:32;100457.23;;;25.65;19.17
35952;BME280;22035;51.406;16.194;2023-01-26T10:50:20;100461.66;;;25.68;19.14
35952;BME280;22035;51.406;16.194;2023-01-26T10:52:57;100461.05;;;25.67;19.15
35952;BME280;22035;51.406;16.194;2023-01-26T10:55:23;100456.96;;;25.63;19.18
35952;BME280;22035;51.406;16.194;2023-01-26T10:57:49;100455.64;;;25.61;19.21
35952;BME280;22035;51.406;16.194;2023-01-26T11:00:22;100457.60;;;25.66;19.17
35952;BME280;22035;51.406;16.194;2023-01-26T11:02:50;100453.48;;;25.63;19.18
35952;BME280;22035;51.406;16.194;2023-01-26T11:05:20;100453.34;;;25.64;19.18
35952;BME280;22035;51.406;16.194;2023-01-26T11:07:47;100455.49;;;25.61;19.21
35952;BME280;22035;51.406;16.194;2023-01-26T11:10:24;100454.13;;;25.62;19.21
35952;BME280;22035;51.406;16.194;2023-01-26T11:13:05;100445.30;;;25.59;19.23
35952;BME280;22035;51.406;16.194;2023-01-26T11:15:35;100443.79;;;25.65;19.18
35952;BME280;22035;51.406;16.194;2023-01-26T11:18:06;100439.72;;;25.68;19.14
35952;BME280;22035;51.406;16.194;2023-01-26T11:20:45;100443.21;;;25.67;19.17
35952;BME280;22035;51.406;16.194;2023-01-26T11:23:20;100440.78;;;25.65;19.20
35952;BME280;22035;51.406;16.194;2023-01-26T11:26:04;100436.36;;;25.62;19.20
35952;BME280;22035;51.406;16.194;2023-01-26T11:28:43;100429.27;;;25.65;19.21
35952;BME280;22035;51.406;16.194;2023-01-26T11:31:21;100423.83;;;25.61;19.23
35952;BME280;22035;51.406;16.194;2023-01-26T11:34:00;100421.40;;;25.62;19.23
35952;BME280;22035;51.406;16.194;2023-01-26T11:36:39;100420.40;;;25.65;19.21
35952;BME280;22035;51.406;16.194;2023-01-26T11:39:15;100419.80;;;25.65;19.22
35952;BME280;22035;51.406;16.194;2023-01-26T11:41:53;100414.70;;;25.66;19.20
35952;BME280;22035;51.406;16.194;2023-01-26T11:44:43;100415.69;;;25.66;19.19
35952;BME280;22035;51.406;16.194;2023-01-26T11:47:25;100412.05;;;25.67;19.20
35952;BME280;22035;51.406;16.194;2023-01-26T11:50:08;100412.61;;;25.64;19.23
35952;BME280;22035;51.406;16.194;2023-01-26T11:52:47;100409.67;;;25.65;19.23
35952;BME280;22035;51.406;16.194;2023-01-26T11:55:24;100403.11;;;25.65;19.22
35952;BME280;22035;51.406;16.194;2023-01-26T11:58:09;100397.99;;;25.63;19.24
35952;BME280;22035;51.406;16.194;2023-01-26T12:00:40;100395.05;;;25.61;19.26
35952;BME280;22035;51.406;16.194;2023-01-26T12:03:16;100387.12;;;25.64;19.23
35952;BME280;22035;51.406;16.194;2023-01-26T12:05:44;100385.65;;;25.68;19.27
35952;BME280;22035;51.406;16.194;2023-01-26T12:08:15;100385.75;;;25.65;19.22
35952;BME280;22035;51.406;16.194;2023-01-26T12:10:48;100385.62;;;25.66;19.22
35952;BME280;22035;51.406;16.194;2023-01-26T12:13:20;100385.52;;;25.64;19.23
35952;BME280;22035;51.406;16.194;2023-01-26T12:15:55;100383.51;;;25.64;19.24
35952;BME280;22035;51.406;16.194;2023-01-26T12:18:30;100378.57;;;25.66;19.22
35952;BME280;22035;51.406;16.194;2023-01-26T12:21:02;100377.43;;;25.63;19.26
35952;BME280;22035;51.406;16.194;2023-01-26T12:23:37;100371.99;;;25.67;19.22
35952;BME280;22035;51.406;16.194;2023-01-26T12:26:11;100370.37;;;25.65;19.24
35952;BME280;22035;51.406;16.194;2023-01-26T12:28:41;100367.45;;;25.64;19.24
35952;BME280;22035;51.406;16.194;2023-01-26T12:31:15;100363.66;;;25.61;19.28
35952;BME280;22035;51.406;16.194;2023-01-26T12:33:43;100360.85;;;25.65;19.23
35952;BME280;22035;51.406;16.194;2023-01-26T12:36:16;100363.66;;;25.66;19.24
35952;BME280;22035;51.406;16.194;2023-01-26T12:38:57;100367.26;;;25.66;19.24
35952;BME280;22035;51.406;16.194;2023-01-26T12:41:36;100365.60;;;25.62;19.28
35952;BME280;22035;51.406;16.194;2023-01-26T12:44:13;100360.75;;;25.63;19.27